createdAt,value
2018-02-04T00:00:02.827Z,31.80
2018-02-04T00:02:33.869Z,26.20
2018-02-04T00:05:01.477Z,32.50
2018-02-04T00:07:29.001Z,28.13
2018-02-04T00:09:56.517Z,29.80
2018-02-04T00:12:24.068Z,30.73
2018-02-04T00:14:51.588Z,30.60
2018-02-04T00:17:19.149Z,38.13
2018-02-04T00:19:46.669Z,32.80
2018-02-04T00:22:26.178Z,34.47
2018-02-04T00:24:53.693Z,35.47
2018-02-04T00:27:21.257Z,35.53
2018-02-04T00:29:49.536Z,43.60
2018-02-04T00:32:17.828Z,40.13
2018-02-04T00:34:45.394Z,35.10
2018-02-04T00:37:13.684Z,34.13
2018-02-04T00:39:41.239Z,32.83
2018-02-04T00:42:08.764Z,32.47
2018-02-04T00:44:36.316Z,37.80
2018-02-04T00:47:04.596Z,40.13
2018-02-04T00:49:32.156Z,39.03
2018-02-04T00:51:59.672Z,35.50
2018-02-04T00:54:27.195Z,39.17
2018-02-04T00:56:54.778Z,40.37
2018-02-04T00:59:22.294Z,39.03
2018-02-04T01:01:49.860Z,52.47
2018-02-04T01:04:17.386Z,42.20
2018-02-04T01:06:44.963Z,42.30
2018-02-04T01:09:12.480Z,47.40
2018-02-04T01:11:40.310Z,44.17
2018-02-04T01:14:07.872Z,39.13
2018-02-04T01:16:35.393Z,42.90
2018-02-04T01:19:03.199Z,41.50
2018-02-04T01:21:30.709Z,46.70
2018-02-04T01:23:58.259Z,47.87
2018-02-04T01:26:25.792Z,47.10
2018-02-04T01:28:53.340Z,50.20
2018-02-04T01:31:21.625Z,46.40
2018-02-04T01:33:49.183Z,49.17
2018-02-04T01:36:16.702Z,48.20
2018-02-04T01:38:44.224Z,48.53
2018-02-04T01:41:11.783Z,48.30
2018-02-04T01:43:39.298Z,47.40
2018-02-04T01:46:06.851Z,49.17
2018-02-04T01:48:34.949Z,44.60
2018-02-04T01:51:03.267Z,51.90
2018-02-04T01:53:30.784Z,52.80
2018-02-04T01:55:58.608Z,62.23
2018-02-04T01:58:26.129Z,49.50
2018-02-04T02:00:53.644Z,62.70
2018-02-04T02:03:21.196Z,60.43
2018-02-04T02:05:49.480Z,59.83
2018-02-04T02:08:17.037Z,53.97
2018-02-04T02:10:44.560Z,49.90
2018-02-04T02:13:12.109Z,69.83
2018-02-04T02:15:40.398Z,50.87
2018-02-04T02:18:07.991Z,48.47
2018-02-04T02:20:35.504Z,36.30
2018-02-04T02:23:03.033Z,31.10
2018-02-04T02:25:30.581Z,31.97
2018-02-04T02:27:58.448Z,37.40
2018-02-04T02:30:26.030Z,32.97
2018-02-04T02:32:53.547Z,31.90
2018-02-04T02:35:21.820Z,32.67
2018-02-04T02:37:49.398Z,29.93
2018-02-04T02:40:16.984Z,28.53
2018-02-04T02:42:44.506Z,30.90
2018-02-04T02:45:12.021Z,28.63
2018-02-04T02:47:39.577Z,32.40
2018-02-04T02:50:07.100Z,29.97
2018-02-04T02:52:34.655Z,28.90
2018-02-04T02:55:02.178Z,26.03
2018-02-04T02:57:30.493Z,27.70
2018-02-04T02:59:58.012Z,26.90
2018-02-04T03:02:25.567Z,26.30
2018-02-04T03:04:53.079Z,23.57
2018-02-04T03:07:21.440Z,21.57
2018-02-04T03:09:48.956Z,22.70
2018-02-04T03:12:16.477Z,26.93
2018-02-04T03:14:44.033Z,21.03
2018-02-04T03:17:11.558Z,22.67
2018-02-04T03:19:39.121Z,21.43
2018-02-04T03:22:06.636Z,21.20
2018-02-04T03:24:34.185Z,22.13
2018-02-04T03:27:01.696Z,18.23
2018-02-04T03:29:29.240Z,21.57
2018-02-04T03:31:56.768Z,17.90
2018-02-04T03:34:24.320Z,20.10
2018-02-04T03:36:51.855Z,24.33
2018-02-04T03:39:19.432Z,20.07
2018-02-04T03:41:46.954Z,21.40
2018-02-04T03:44:14.472Z,20.40
2018-02-04T03:46:42.022Z,20.77
2018-02-04T03:49:10.307Z,24.70
2018-02-04T03:51:38.624Z,16.77
2018-02-04T03:54:06.144Z,20.23
2018-02-04T03:56:33.692Z,21.97
2018-02-04T03:59:01.204Z,20.90
2018-02-04T04:01:28.764Z,21.20
2018-02-04T04:03:56.289Z,23.07
2018-02-04T04:06:23.804Z,24.73
2018-02-04T04:08:51.361Z,21.77
2018-02-04T04:11:18.880Z,28.40
2018-02-04T04:13:46.577Z,26.90
2018-02-04T04:16:14.104Z,24.53
2018-02-04T04:18:41.668Z,29.20
2018-02-04T04:21:09.192Z,30.33
2018-02-04T04:23:36.740Z,34.80
2018-02-04T04:26:05.024Z,27.93
2018-02-04T04:28:32.609Z,28.20
2018-02-04T04:31:00.120Z,33.63
2018-02-04T04:33:27.641Z,32.00
2018-02-04T04:35:55.956Z,34.47
2018-02-04T04:38:23.476Z,31.40
2018-02-04T04:40:51.034Z,32.00
2018-02-04T04:43:18.556Z,30.73
2018-02-04T04:45:46.863Z,34.07
2018-02-04T04:48:14.385Z,40.27
2018-02-04T04:50:41.968Z,35.13
2018-02-04T04:53:09.488Z,44.77
2018-02-04T04:55:37.000Z,40.37
2018-02-04T04:58:04.544Z,44.33
2018-02-04T05:00:32.068Z,42.17
2018-02-04T05:03:00.384Z,35.93
2018-02-04T05:05:27.904Z,41.57
2018-02-04T05:07:55.473Z,38.70
2018-02-04T05:10:22.995Z,38.27
2018-02-04T05:12:50.544Z,36.87
2018-02-04T05:15:18.064Z,35.87
2018-02-04T05:17:45.825Z,33.80
2018-02-04T05:20:13.754Z,26.40
2018-02-04T05:22:41.288Z,27.87
2018-02-04T05:25:08.849Z,31.30
2018-02-04T05:27:36.382Z,32.10
2018-02-04T05:30:03.936Z,30.33
2018-02-04T05:32:31.444Z,31.37
2018-02-04T05:34:59.764Z,30.43
2018-02-04T05:37:27.285Z,28.67
2018-02-04T05:39:54.855Z,26.80
2018-02-04T05:42:22.371Z,26.30
2018-02-04T05:44:49.883Z,25.60
2018-02-04T05:47:17.455Z,22.13
2018-02-04T05:49:46.891Z,17.63
2018-02-04T05:52:14.439Z,18.37
2018-02-04T05:54:41.953Z,19.00
2018-02-04T05:57:10.275Z,19.60
2018-02-04T05:59:37.817Z,19.30
2018-02-04T06:02:06.152Z,18.63
2018-02-04T06:04:33.668Z,17.10
2018-02-04T06:07:01.955Z,23.20
2018-02-04T06:09:29.503Z,20.80
2018-02-04T06:11:57.020Z,23.40
2018-02-04T06:14:25.345Z,21.97
2018-02-04T06:16:52.864Z,19.17
2018-02-04T06:19:20.428Z,16.47
2018-02-04T06:21:47.947Z,18.63
2018-02-04T06:24:15.461Z,17.17
2018-02-04T06:26:43.008Z,20.40
2018-02-04T06:29:10.556Z,12.70
2018-02-04T06:31:38.105Z,15.80
2018-02-04T06:34:06.393Z,15.00
2018-02-04T06:36:33.935Z,14.67
2018-02-04T06:39:01.452Z,13.43
2018-02-04T06:41:29.345Z,11.60
2018-02-04T06:43:56.868Z,12.83
2018-02-04T06:46:25.112Z,24.00
2018-02-04T06:48:52.664Z,16.07
2018-02-04T06:51:20.943Z,14.30
2018-02-04T06:53:49.461Z,22.00
2018-02-04T06:56:16.977Z,16.87
2018-02-04T06:58:44.503Z,17.10
2018-02-04T07:01:12.076Z,15.13
2018-02-04T07:03:39.596Z,14.10
2018-02-04T07:06:07.155Z,18.43
2018-02-04T07:08:34.681Z,14.77
2018-02-04T07:11:02.247Z,14.47
2018-02-04T07:13:30.525Z,18.70
2018-02-04T07:15:59.044Z,14.70
2018-02-04T07:18:26.595Z,12.97
2018-02-04T07:20:54.871Z,20.13
2018-02-04T07:23:22.450Z,10.60
2018-02-04T07:25:50.029Z,12.83
2018-02-04T07:28:17.604Z,11.50
2018-02-04T07:30:45.901Z,12.70
2018-02-04T07:33:14.511Z,10.97
2018-02-04T07:35:42.031Z,12.83
2018-02-04T07:38:09.549Z,12.30
2018-02-04T07:40:37.117Z,15.50
2018-02-04T07:43:05.444Z,13.30
2018-02-04T07:45:32.991Z,18.13
2018-02-04T07:48:00.505Z,17.83
2018-02-04T07:50:28.868Z,16.83
2018-02-04T07:52:56.386Z,14.33
2018-02-04T07:55:23.972Z,15.07
2018-02-04T07:57:51.496Z,14.37
2018-02-04T08:00:19.016Z,14.90
2018-02-04T08:02:47.360Z,15.60
2018-02-04T08:05:14.881Z,15.30
2018-02-04T08:07:43.188Z,17.50
2018-02-04T08:10:10.700Z,20.90
2018-02-04T08:12:38.252Z,17.70
2018-02-04T08:15:05.763Z,16.33
2018-02-04T08:17:33.460Z,14.10
2018-02-04T08:20:01.012Z,11.93
2018-02-04T08:22:28.537Z,11.10
2018-02-04T08:24:56.104Z,14.23
2018-02-04T08:27:23.618Z,10.60
2018-02-04T08:29:51.171Z,12.70
2018-02-04T08:32:18.697Z,12.27
2018-02-04T08:34:47.010Z,9.43
2018-02-04T08:37:14.548Z,14.80
2018-02-04T08:39:42.100Z,11.20
2018-02-04T08:42:09.652Z,8.87
2018-02-04T08:44:37.170Z,9.77
2018-02-04T08:47:05.493Z,8.20
2018-02-04T08:49:33.016Z,9.10
2018-02-04T08:52:00.567Z,7.50
2018-02-04T08:54:28.085Z,9.73
2018-02-04T08:56:55.662Z,8.33
2018-02-04T08:59:23.174Z,6.53
2018-02-04T09:01:50.741Z,7.03
2018-02-04T09:04:18.260Z,7.23
2018-02-04T09:06:46.544Z,6.70
2018-02-04T09:09:14.160Z,6.83
2018-02-04T09:11:41.671Z,5.33
2018-02-04T09:14:09.219Z,5.73
2018-02-04T09:16:36.729Z,5.07
2018-02-04T09:19:04.272Z,5.20
2018-02-04T09:21:31.788Z,7.20
2018-02-04T09:24:00.127Z,5.60
2018-02-04T09:26:27.644Z,5.30
2018-02-04T09:28:55.155Z,5.93
2018-02-04T09:31:22.755Z,4.63
2018-02-04T09:33:50.278Z,3.80
2018-02-04T09:36:17.838Z,5.07
2018-02-04T09:38:45.396Z,4.33
2018-02-04T09:41:12.919Z,5.60
2018-02-04T09:43:40.433Z,3.90
2018-02-04T09:46:08.261Z,4.03
2018-02-04T09:48:35.780Z,7.07
2018-02-04T09:51:03.288Z,4.63
2018-02-04T09:53:30.898Z,3.63
2018-02-04T09:55:58.386Z,3.67
2018-02-04T09:58:25.927Z,3.80
2018-02-04T10:00:53.456Z,5.50
2018-02-04T10:03:21.800Z,7.67
2018-02-04T10:05:49.323Z,7.60
2018-02-04T10:08:17.653Z,6.83
2018-02-04T10:10:45.168Z,6.90
2018-02-04T10:13:12.689Z,5.40
2018-02-04T10:15:40.244Z,4.20
2018-02-04T10:18:07.756Z,5.33
2018-02-04T10:20:35.340Z,4.53
2018-02-04T10:23:02.857Z,6.00
2018-02-04T10:25:31.180Z,4.57
2018-02-04T10:27:58.692Z,4.20
2018-02-04T10:30:26.255Z,5.07
2018-02-04T10:32:53.813Z,4.80
2018-02-04T10:35:21.392Z,8.03
2018-02-04T10:37:48.931Z,4.97
2018-02-04T10:40:16.500Z,9.93
2018-02-04T10:42:44.223Z,5.43
2018-02-04T10:45:11.745Z,3.60
2018-02-04T10:47:39.309Z,4.57
2018-02-04T10:50:06.858Z,4.67
2018-02-04T10:52:35.208Z,5.67
2018-02-04T10:55:03.495Z,6.43
2018-02-04T10:57:31.122Z,6.03
2018-02-04T10:59:59.416Z,5.60
2018-02-04T11:02:27.741Z,6.10
2018-02-04T11:04:55.279Z,5.00
2018-02-04T11:07:23.620Z,5.67
2018-02-04T11:09:51.208Z,6.20
2018-02-04T11:12:18.882Z,6.20
2018-02-04T11:14:46.469Z,6.13
2018-02-04T11:17:14.840Z,7.50
2018-02-04T11:19:42.367Z,5.63
2018-02-04T11:22:09.937Z,6.73
2018-02-04T11:24:38.235Z,6.30
2018-02-04T11:27:05.759Z,5.97
2018-02-04T11:29:33.323Z,6.80
2018-02-04T11:32:00.845Z,6.73
2018-02-04T11:34:28.403Z,5.80
2018-02-04T11:36:56.680Z,7.30
2018-02-04T11:39:25.008Z,6.50
2018-02-04T11:41:52.522Z,7.10
2018-02-04T11:44:20.043Z,6.50
2018-02-04T11:46:47.612Z,5.83
2018-02-04T11:49:15.232Z,6.10
2018-02-04T11:51:42.792Z,5.83
2018-02-04T11:54:10.418Z,5.90
2018-02-04T11:56:38.119Z,7.33
2018-02-04T11:59:05.684Z,13.13
2018-02-04T12:01:33.272Z,6.47
2018-02-04T12:04:00.787Z,6.57
2018-02-04T12:06:28.304Z,6.67
2018-02-04T12:08:55.852Z,4.20
2018-02-04T12:11:24.135Z,5.93
2018-02-04T12:13:52.461Z,5.20
2018-02-04T12:16:19.976Z,4.00
2018-02-04T12:18:47.589Z,5.17
2018-02-04T12:21:15.145Z,5.77
2018-02-04T12:23:43.479Z,7.10
2018-02-04T12:26:11.060Z,5.90
2018-02-04T12:28:39.125Z,4.37
2018-02-04T12:31:06.685Z,5.50
2018-02-04T12:33:34.208Z,5.27
2018-02-04T12:36:01.764Z,8.37
2018-02-04T12:38:29.315Z,5.27
2018-02-04T12:40:56.885Z,6.07
2018-02-04T12:43:24.410Z,7.03
2018-02-04T12:45:51.968Z,5.00
2018-02-04T12:48:19.490Z,4.60
2018-02-04T12:50:47.051Z,7.70
2018-02-04T12:53:15.351Z,10.43
2018-02-04T12:55:42.925Z,6.73
2018-02-04T12:58:10.445Z,5.37
2018-02-04T13:00:37.961Z,5.50
2018-02-04T13:03:06.279Z,7.00
2018-02-04T13:05:33.812Z,5.40
2018-02-04T13:08:02.155Z,5.93
2018-02-04T13:10:29.682Z,10.90
2018-02-04T13:12:58.089Z,5.00
2018-02-04T13:15:25.607Z,6.03
2018-02-04T13:17:53.164Z,7.60
2018-02-04T13:20:20.685Z,7.00
2018-02-04T13:22:49.017Z,5.17
2018-02-04T13:25:16.591Z,4.40
2018-02-04T13:27:44.153Z,4.53
2018-02-04T13:30:11.675Z,5.23
2018-02-04T13:32:39.447Z,5.33
2018-02-04T13:35:06.960Z,5.00
2018-02-04T13:37:34.500Z,4.70
2018-02-04T13:40:02.837Z,5.57
2018-02-04T13:42:30.380Z,5.70
2018-02-04T13:44:58.704Z,6.93
2018-02-04T13:47:26.241Z,6.00
2018-02-04T13:49:53.831Z,5.40
2018-02-04T13:52:21.397Z,4.17
2018-02-04T13:54:49.069Z,4.00
2018-02-04T13:57:16.592Z,4.10
2018-02-04T13:59:45.227Z,5.93
2018-02-04T14:02:13.844Z,4.20
2018-02-04T14:04:41.368Z,4.10
2018-02-04T14:07:08.957Z,5.23
2018-02-04T14:09:36.473Z,4.70
2018-02-04T14:12:04.032Z,4.20
2018-02-04T14:14:31.571Z,3.97
2018-02-04T14:16:59.916Z,5.00
2018-02-04T14:19:27.434Z,5.67
2018-02-04T14:21:54.996Z,5.00
2018-02-04T14:24:22.512Z,6.10
2018-02-04T14:26:50.162Z,3.47
2018-02-04T14:29:17.743Z,4.70
2018-02-04T14:31:46.045Z,7.30
2018-02-04T14:34:13.600Z,5.37
2018-02-04T14:36:42.656Z,3.67
2018-02-04T14:39:10.217Z,5.37
2018-02-04T14:41:38.432Z,4.03
2018-02-04T14:44:05.998Z,3.70
2018-02-04T14:46:33.516Z,4.57
2018-02-04T14:49:01.084Z,4.27
2018-02-04T14:51:29.381Z,5.03
2018-02-04T14:53:57.700Z,3.93
2018-02-04T14:56:25.226Z,3.80
2018-02-04T14:58:52.797Z,5.23
2018-02-04T15:01:20.310Z,6.23
2018-02-04T15:03:47.842Z,4.00
2018-02-04T15:06:16.172Z,4.67
2018-02-04T15:08:43.698Z,4.63
2018-02-04T15:11:12.815Z,5.90
2018-02-04T15:13:40.362Z,4.60
2018-02-04T15:16:07.936Z,3.90
2018-02-04T15:18:35.440Z,3.20
2018-02-04T15:21:03.816Z,5.30
2018-02-04T15:23:31.336Z,5.00
2018-02-04T15:25:58.939Z,3.80
2018-02-04T15:28:26.452Z,5.70
2018-02-04T15:30:54.740Z,6.23
2018-02-04T15:33:23.066Z,6.83
2018-02-04T15:35:50.608Z,4.70
2018-02-04T15:38:18.165Z,4.13
2018-02-04T15:40:45.689Z,5.40
2018-02-04T15:43:13.260Z,6.23
2018-02-04T15:45:40.872Z,5.47
2018-02-04T15:48:08.450Z,5.33
2018-02-04T15:50:35.975Z,4.50
2018-02-04T15:53:03.557Z,4.90
2018-02-04T15:55:31.060Z,5.67
2018-02-04T15:57:58.583Z,4.93
2018-02-04T16:00:26.154Z,4.90
2018-02-04T16:02:53.668Z,5.60
2018-02-04T16:05:21.232Z,6.30
2018-02-04T16:07:48.747Z,4.83
2018-02-04T16:10:17.081Z,6.63
2018-02-04T16:12:44.644Z,4.90
2018-02-04T16:15:12.331Z,7.73
2018-02-04T16:17:39.873Z,5.30
2018-02-04T16:20:07.394Z,6.37
2018-02-04T16:22:35.759Z,5.97
2018-02-04T16:25:03.333Z,7.00
2018-02-04T16:27:31.876Z,6.17
2018-02-04T16:29:59.400Z,6.47
2018-02-04T16:32:27.159Z,8.47
2018-02-04T16:34:54.698Z,5.03
2018-02-04T16:37:22.988Z,6.33
2018-02-04T16:39:51.322Z,6.43
2018-02-04T16:42:18.850Z,9.60
2018-02-04T16:44:47.176Z,6.47
2018-02-04T16:47:14.703Z,8.93
2018-02-04T16:49:43.045Z,7.20
2018-02-04T16:52:10.587Z,8.50
2018-02-04T16:54:38.160Z,10.43
2018-02-04T16:57:05.684Z,9.50
2018-02-04T16:59:33.240Z,7.10
2018-02-04T17:02:00.767Z,7.40
2018-02-04T17:04:29.088Z,7.30
2018-02-04T17:06:56.610Z,8.90
2018-02-04T17:09:24.197Z,6.17
2018-02-04T17:11:52.484Z,8.30
2018-02-04T17:14:20.065Z,7.77
2018-02-04T17:16:47.639Z,6.87
2018-02-04T17:19:15.924Z,9.70
2018-02-04T17:21:44.272Z,7.40
2018-02-04T17:24:11.789Z,7.57
2018-02-04T17:26:40.112Z,7.40
2018-02-04T17:29:07.660Z,8.60
2018-02-04T17:31:35.209Z,6.10
2018-02-04T17:34:02.764Z,5.80
2018-02-04T17:36:30.324Z,6.23
2018-02-04T17:38:57.938Z,7.53
2018-02-04T17:41:25.508Z,6.50
2018-02-04T17:43:53.020Z,7.30
2018-02-04T17:46:20.577Z,8.60
2018-02-04T17:48:48.923Z,6.87
2018-02-04T17:51:16.481Z,11.23
2018-02-04T17:53:44.032Z,21.23
2018-02-04T17:56:11.601Z,43.90
2018-02-04T18:52:00.799Z,11.43
2018-02-04T19:36:48.454Z,13.43
2018-02-04T19:39:16.305Z,14.57
2018-02-04T19:41:44.639Z,12.80
2018-02-04T19:44:12.164Z,12.07
2018-02-04T19:46:39.847Z,13.43
2018-02-04T19:49:07.968Z,13.40
2018-02-04T19:51:35.573Z,11.13
2018-02-04T19:54:03.377Z,16.70
2018-02-04T19:56:31.203Z,17.50
2018-02-04T19:58:59.112Z,14.33
2018-02-04T20:01:27.492Z,21.17
2018-02-04T20:03:55.363Z,15.87
2018-02-04T20:06:23.191Z,10.60
2018-02-04T20:08:51.083Z,13.07
2018-02-04T20:11:19.596Z,14.17
2018-02-04T20:13:47.491Z,10.77
2018-02-04T20:30:28.159Z,12.97
2018-02-04T20:33:07.548Z,11.20
2018-02-04T20:35:35.067Z,14.40
2018-02-04T20:38:02.611Z,14.40
2018-02-04T20:40:30.144Z,15.23
2018-02-04T20:42:57.775Z,12.90
2018-02-04T20:45:25.293Z,16.13
2018-02-04T20:47:52.849Z,14.93
2018-02-04T20:50:20.360Z,13.10
2018-02-04T20:52:47.919Z,13.60
2018-02-04T20:55:15.428Z,16.30
2018-02-04T20:57:43.014Z,12.77
2018-02-04T21:00:11.288Z,17.07
2018-02-04T21:02:38.807Z,13.63
2018-02-04T21:05:06.363Z,11.47
2018-02-04T21:07:33.885Z,17.33
2018-02-04T21:10:02.208Z,14.40
2018-02-04T21:12:29.755Z,14.50
2018-02-04T21:14:57.304Z,15.93
2018-02-04T21:17:25.000Z,18.60
2018-02-04T21:19:52.511Z,16.07
2018-02-04T21:22:20.039Z,18.10
2018-02-04T21:24:47.591Z,20.47
2018-02-04T21:27:15.120Z,18.97
2018-02-04T21:29:42.671Z,17.97
2018-02-04T21:32:10.171Z,23.60
2018-02-04T21:34:37.720Z,13.63
2018-02-04T21:37:05.233Z,17.80
2018-02-04T21:39:32.831Z,15.60
2018-02-04T21:42:00.380Z,17.00
2018-02-04T21:44:27.911Z,15.33
2018-02-04T21:46:55.424Z,20.33
2018-02-04T21:49:22.967Z,17.33
2018-02-04T21:51:50.476Z,17.93
2018-02-04T21:54:18.069Z,14.13
2018-02-04T21:56:45.579Z,15.03
2018-02-04T21:59:13.119Z,14.27
2018-02-04T22:01:41.387Z,15.40
2018-02-04T22:04:08.935Z,16.00
2018-02-04T22:06:36.447Z,12.90
2018-02-04T22:09:04.755Z,14.57
2018-02-04T22:11:32.271Z,11.57
2018-02-04T22:13:59.812Z,15.47
2018-02-04T22:16:27.323Z,14.40
2018-02-04T22:18:54.861Z,13.70
2018-02-04T22:21:22.382Z,18.83
2018-02-04T22:23:49.927Z,14.47
2018-02-04T22:26:17.437Z,14.40
2018-02-04T22:28:44.983Z,12.67
2018-02-04T22:31:12.504Z,14.77
2018-02-04T22:33:40.052Z,14.00
2018-02-04T22:36:07.584Z,13.93
2018-02-04T22:38:35.136Z,14.53
2018-02-04T22:41:02.648Z,16.83
2018-02-04T22:43:30.191Z,18.53
2018-02-04T22:45:57.694Z,15.40
2018-02-04T22:48:25.228Z,12.93
2018-02-04T22:50:52.799Z,15.47
2018-02-04T22:53:20.337Z,14.60
2018-02-04T22:55:47.850Z,16.53
2018-02-04T22:58:15.399Z,14.53
2018-02-04T23:00:42.915Z,14.17
2018-02-04T23:03:10.512Z,15.73
2018-02-04T23:05:38.026Z,16.23
2018-02-04T23:08:05.571Z,14.50
2018-02-04T23:10:33.075Z,12.53
2018-02-04T23:13:00.617Z,13.30
2018-02-04T23:15:28.123Z,13.40
2018-02-04T23:17:55.672Z,16.63
2018-02-04T23:20:23.209Z,15.23
2018-02-04T23:22:50.751Z,15.57
2018-02-04T23:25:18.255Z,13.27
2018-02-04T23:27:46.574Z,13.80
2018-02-04T23:30:14.115Z,15.10
2018-02-04T23:32:42.220Z,14.17
2018-02-04T23:35:09.744Z,14.50
2018-02-04T23:37:37.286Z,16.30
2018-02-04T23:40:04.800Z,16.80
2018-02-04T23:42:32.339Z,14.07
2018-02-04T23:44:59.860Z,12.47
2018-02-04T23:47:28.171Z,14.47
2018-02-04T23:49:55.684Z,13.50
2018-02-04T23:52:23.227Z,21.00
2018-02-04T23:54:50.743Z,15.30
2018-02-04T23:57:18.296Z,13.13
2018-02-04T23:59:45.813Z,13.73
